Time;durP1;ratioP1;P1;durP2;ratioP2;P2;SDS_P1;SDS_P2;PMS_P1;PMS_P2;Temp;Humidity;BMP_temperature;BMP_pressure;BME280_temperature;BME280_humidity;BME280_pressure;Samples;Min_cycle;Max_cycle;Signal;HPM_P1;HPM_P2
2022/04/24 00:00:27;;;;;;;1.25;0.82;;;;;;;;;;4994689;28;20026;-72
2022/04/24 00:02:53;;;;;;;1.67;0.95;;;;;;;;;;4994373;28;20529;-72
2022/04/24 00:05:20;;;;;;;2.33;0.68;;;;;;;;;;4994710;28;20030;-72
2022/04/24 00:07:46;;;;;;;1.00;0.80;;;;;;;;;;4994416;28;20026;-71
2022/04/24 00:10:12;;;;;;;2.05;0.57;;;;;;;;;;4994254;28;20036;-72
2022/04/24 00:12:39;;;;;;;1.17;0.80;;;;;;;;;;4994738;28;20053;-72
2022/04/24 00:15:05;;;;;;;1.35;0.85;;;;;;;;;;4994502;28;20027;-71
2022/04/24 00:17:32;;;;;;;0.93;0.68;;;;;;;;;;4994104;28;20018;-71
2022/04/24 00:19:58;;;;;;;0.98;0.55;;;;;;;;;;4993376;28;20018;-72
2022/04/24 00:22:24;;;;;;;3.85;0.70;;;;;;;;;;4993557;28;20022;-71
2022/04/24 00:24:51;;;;;;;3.17;1.13;;;;;;;;;;4994606;28;20029;-72
2022/04/24 00:27:17;;;;;;;2.22;0.80;;;;;;;;;;4993841;28;20030;-72
2022/04/24 00:29:43;;;;;;;1.05;0.80;;;;;;;;;;4993965;28;20019;-72
2022/04/24 00:32:10;;;;;;;0.70;0.60;;;;;;;;;;4988177;28;20031;-72
2022/04/24 00:34:36;;;;;;;0.90;0.73;;;;;;;;;;4993052;28;20023;-71
2022/04/24 00:37:03;;;;;;;1.50;0.70;;;;;;;;;;4990479;28;20018;-72
2022/04/24 00:39:29;;;;;;;1.00;0.90;;;;;;;;;;4989745;28;20030;-71
2022/04/24 00:41:55;;;;;;;1.13;0.70;;;;;;;;;;4989351;28;20026;-71
2022/04/24 00:44:22;;;;;;;4.05;1.30;;;;;;;;;;4989186;28;20534;-72
2022/04/24 00:46:54;;;;;;;2.30;1.25;;;;;;;;;;4991280;28;20022;-71
2022/04/24 00:49:20;;;;;;;2.15;1.52;;;;;;;;;;4993174;28;20045;-72
2022/04/24 00:51:47;;;;;;;3.10;1.60;;;;;;;;;;4993626;28;20046;-71
2022/04/24 00:54:13;;;;;;;2.25;1.00;;;;;;;;;;4993795;28;20040;-71
2022/04/24 00:56:40;;;;;;;2.38;1.27;;;;;;;;;;4993321;28;20048;-71
2022/04/24 00:59:08;;;;;;;1.20;1.10;;;;;;;;;;4993422;28;20022;-72
2022/04/24 01:01:35;;;;;;;3.75;1.25;;;;;;;;;;4993639;28;20034;-72
2022/04/24 01:04:03;;;;;;;1.33;0.98;;;;;;;;;;4993565;28;20098;-72
2022/04/24 01:06:31;;;;;;;2.85;0.90;;;;;;;;;;4993257;28;20030;-72
2022/04/24 01:09:10;;;;;;;1.50;0.80;;;;;;;;;;4987890;28;20036;-71
2022/04/24 01:11:36;;;;;;;3.50;1.00;;;;;;;;;;4988970;28;20030;-71
2022/04/24 01:14:03;;;;;;;8.43;2.10;;;;;;;;;;4988736;28;20084;-72
2022/04/24 01:16:30;;;;;;;5.75;2.10;;;;;;;;;;4993011;28;20027;-72
2022/04/24 01:18:56;;;;;;;2.92;1.40;;;;;;;;;;5005083;28;20023;-72
2022/04/24 01:21:23;;;;;;;2.42;1.23;;;;;;;;;;4992419;28;20399;-72
2022/04/24 01:23:49;;;;;;;1.27;1.17;;;;;;;;;;4992950;28;20034;-72
2022/04/24 01:26:15;;;;;;;1.75;1.00;;;;;;;;;;4993068;28;20034;-72
2022/04/24 01:28:42;;;;;;;2.58;1.10;;;;;;;;;;4992901;28;20486;-71
2022/04/24 01:31:08;;;;;;;1.05;0.90;;;;;;;;;;4992694;28;20426;-72
2022/04/24 01:33:34;;;;;;;2.40;1.05;;;;;;;;;;4992877;28;20404;-72
2022/04/24 01:36:01;;;;;;;1.83;1.20;;;;;;;;;;4992183;28;20024;-72
2022/04/24 01:38:29;;;;;;;1.20;0.93;;;;;;;;;;4992764;28;20034;-71
2022/04/24 01:40:55;;;;;;;1.48;1.02;;;;;;;;;;4992939;28;20017;-72
2022/04/24 01:43:24;;;;;;;1.80;1.30;;;;;;;;;;4992683;28;20030;-72
2022/04/24 01:45:50;;;;;;;2.20;1.42;;;;;;;;;;4992880;28;20042;-72
2022/04/24 01:48:17;;;;;;;2.08;1.15;;;;;;;;;;4992325;28;20026;-71
2022/04/24 01:50:43;;;;;;;1.17;0.90;;;;;;;;;;4992252;28;20023;-71
2022/04/24 01:53:10;;;;;;;1.95;1.52;;;;;;;;;;4992415;28;20101;-72
2022/04/24 01:55:36;;;;;;;2.05;1.40;;;;;;;;;;4992355;28;20028;-71
2022/04/24 01:58:02;;;;;;;1.63;1.40;;;;;;;;;;4992469;28;20056;-72
2022/04/24 02:00:30;;;;;;;1.48;1.38;;;;;;;;;;4993038;28;20026;-71
2022/04/24 02:02:56;;;;;;;1.52;1.13;;;;;;;;;;4992586;28;20022;-71
2022/04/24 02:05:22;;;;;;;1.65;1.30;;;;;;;;;;4991867;28;20021;-72
2022/04/24 02:07:49;;;;;;;3.22;1.40;;;;;;;;;;4992282;28;20101;-72
2022/04/24 02:10:17;;;;;;;1.75;1.30;;;;;;;;;;4992154;28;20501;-71
2022/04/24 02:12:44;;;;;;;2.47;1.50;;;;;;;;;;4992740;28;20040;-72
2022/04/24 02:15:11;;;;;;;1.45;1.13;;;;;;;;;;4992188;28;20391;-71
2022/04/24 02:17:37;;;;;;;3.13;1.23;;;;;;;;;;4992102;28;20095;-71
2022/04/24 02:20:04;;;;;;;2.90;1.20;;;;;;;;;;4991805;28;20503;-72
2022/04/24 02:22:31;;;;;;;1.45;1.15;;;;;;;;;;4992079;28;20026;-71
2022/04/24 02:24:58;;;;;;;1.30;1.17;;;;;;;;;;4992629;28;20043;-71
2022/04/24 02:27:24;;;;;;;2.83;1.15;;;;;;;;;;4992110;28;20034;-72
2022/04/24 02:29:51;;;;;;;2.03;1.45;;;;;;;;;;5000538;28;20034;-72
2022/04/24 02:32:17;;;;;;;1.77;1.25;;;;;;;;;;4982919;28;20041;-72
2022/04/24 02:34:43;;;;;;;3.50;1.67;;;;;;;;;;4991585;28;20030;-71
2022/04/24 02:37:10;;;;;;;1.92;1.50;;;;;;;;;;4992201;28;20040;-72
2022/04/24 02:39:36;;;;;;;2.35;1.73;;;;;;;;;;4992322;28;20026;-72
2022/04/24 02:42:03;;;;;;;2.75;1.70;;;;;;;;;;4998641;28;20031;-72
2022/04/24 02:44:31;;;;;;;2.10;1.50;;;;;;;;;;4986783;28;20054;-72
2022/04/24 02:46:58;;;;;;;2.03;1.42;;;;;;;;;;4995768;28;20410;-71
2022/04/24 02:49:24;;;;;;;3.53;1.42;;;;;;;;;;4995794;28;20018;-71
2022/04/24 02:51:50;;;;;;;3.78;1.40;;;;;;;;;;4996458;28;20022;-72
2022/04/24 02:54:17;;;;;;;2.88;1.55;;;;;;;;;;5000522;28;20081;-72
2022/04/24 02:56:43;;;;;;;2.38;1.77;;;;;;;;;;4990530;28;20041;-71
2022/04/24 02:59:11;;;;;;;2.38;1.52;;;;;;;;;;4995617;28;20026;-72
2022/04/24 03:01:39;;;;;;;2.47;1.70;;;;;;;;;;4995635;28;20597;-72
2022/04/24 03:04:05;;;;;;;3.55;2.00;;;;;;;;;;4995396;28;20391;-71
2022/04/24 03:06:32;;;;;;;2.35;1.98;;;;;;;;;;4998656;28;20085;-72
2022/04/24 03:08:58;;;;;;;5.43;1.88;;;;;;;;;;4992460;28;20027;-71
2022/04/24 03:11:24;;;;;;;4.43;1.90;;;;;;;;;;4995592;28;20030;-72
2022/04/24 03:13:52;;;;;;;2.05;1.52;;;;;;;;;;4995317;28;20027;-71
2022/04/24 03:16:18;;;;;;;2.78;1.98;;;;;;;;;;4995050;28;20434;-71
2022/04/24 03:18:44;;;;;;;3.13;1.77;;;;;;;;;;5007957;28;20030;-72
2022/04/24 03:21:11;;;;;;;2.10;1.50;;;;;;;;;;4992699;28;20076;-72
2022/04/24 03:23:37;;;;;;;2.15;1.67;;;;;;;;;;4990873;28;20034;-72
2022/04/24 03:26:04;;;;;;;2.25;1.40;;;;;;;;;;4995209;28;20361;-71
2022/04/24 03:28:30;;;;;;;1.23;1.00;;;;;;;;;;4995282;28;20488;-71
2022/04/24 03:30:56;;;;;;;2.03;1.50;;;;;;;;;;4995397;28;20039;-72
2022/04/24 03:33:23;;;;;;;1.40;1.30;;;;;;;;;;4994967;28;20445;-72
2022/04/24 03:35:49;;;;;;;2.15;1.65;;;;;;;;;;4994997;28;20018;-72
2022/04/24 03:38:15;;;;;;;1.33;1.20;;;;;;;;;;4994915;28;20037;-72
2022/04/24 03:40:42;;;;;;;2.25;1.75;;;;;;;;;;4995429;28;20022;-71
2022/04/24 03:43:08;;;;;;;1.77;1.25;;;;;;;;;;4995289;28;20042;-72
2022/04/24 03:45:34;;;;;;;2.95;1.83;;;;;;;;;;4994784;28;20552;-72
2022/04/24 03:48:01;;;;;;;3.70;2.00;;;;;;;;;;4994571;28;20430;-71
2022/04/24 03:50:29;;;;;;;3.20;2.30;;;;;;;;;;4994982;28;20033;-72
2022/04/24 03:52:56;;;;;;;3.05;2.45;;;;;;;;;;4994613;28;20435;-72
2022/04/24 03:55:22;;;;;;;5.22;3.25;;;;;;;;;;4994577;28;20029;-72
2022/04/24 03:57:48;;;;;;;4.85;2.28;;;;;;;;;;4995139;28;20037;-72
2022/04/24 04:00:15;;;;;;;5.53;2.05;;;;;;;;;;4994074;28;20518;-72
2022/04/24 04:02:48;;;;;;;4.60;1.50;;;;;;;;;;4994623;28;20044;-72
2022/04/24 04:05:16;;;;;;;4.20;1.67;;;;;;;;;;4994473;28;20025;-72
2022/04/24 04:07:42;;;;;;;1.77;1.40;;;;;;;;;;4994480;28;20010;-71
2022/04/24 04:10:09;;;;;;;1.55;1.10;;;;;;;;;;4994479;28;20076;-72
2022/04/24 04:12:36;;;;;;;1.58;1.05;;;;;;;;;;4994693;28;20027;-72
2022/04/24 04:15:03;;;;;;;3.28;1.23;;;;;;;;;;4993852;28;20036;-72
2022/04/24 04:17:30;;;;;;;1.45;1.08;;;;;;;;;;4994133;28;20275;-72
2022/04/24 04:19:56;;;;;;;3.22;1.15;;;;;;;;;;4994202;28;20442;-72
2022/04/24 04:22:22;;;;;;;1.98;1.55;;;;;;;;;;4994144;28;20467;-72
2022/04/24 04:24:49;;;;;;;2.50;1.40;;;;;;;;;;4994704;28;20545;-72
2022/04/24 04:27:15;;;;;;;2.97;1.45;;;;;;;;;;4994319;28;20029;-72
2022/04/24 04:29:41;;;;;;;1.50;1.30;;;;;;;;;;4993706;28;20397;-72
2022/04/24 04:32:08;;;;;;;1.98;1.40;;;;;;;;;;5008864;28;20032;-72
2022/04/24 04:34:34;;;;;;;2.08;1.42;;;;;;;;;;5008963;28;20026;-72
2022/04/24 04:37:00;;;;;;;2.67;1.52;;;;;;;;;;4994108;28;20373;-72
2022/04/24 04:39:27;;;;;;;1.58;1.40;;;;;;;;;;4994055;28;20023;-72
2022/04/24 04:41:53;;;;;;;1.63;1.30;;;;;;;;;;4993948;28;20023;-72
2022/04/24 04:44:19;;;;;;;2.05;1.67;;;;;;;;;;4993203;28;20389;-72
2022/04/24 04:46:46;;;;;;;1.98;1.60;;;;;;;;;;4993698;28;20018;-72
2022/04/24 04:49:12;;;;;;;4.97;1.70;;;;;;;;;;4993847;28;20044;-71
2022/04/24 04:51:39;;;;;;;1.90;1.60;;;;;;;;;;4994141;28;20387;-72
2022/04/24 04:54:08;;;;;;;1.83;1.65;;;;;;;;;;4993493;28;20076;-72
2022/04/24 04:56:34;;;;;;;2.15;1.83;;;;;;;;;;4993367;28;20034;-71
2022/04/24 04:59:00;;;;;;;3.10;1.80;;;;;;;;;;4993151;28;20040;-71
2022/04/24 05:01:26;;;;;;;1.92;1.63;;;;;;;;;;4977825;28;20018;-72
2022/04/24 05:03:53;;;;;;;2.97;1.85;;;;;;;;;;4989632;28;20036;-72
2022/04/24 05:06:21;;;;;;;2.65;1.83;;;;;;;;;;4988514;28;20023;-72
2022/04/24 05:08:47;;;;;;;2.03;1.65;;;;;;;;;;4989250;28;20100;-71
2022/04/24 05:11:14;;;;;;;2.25;1.80;;;;;;;;;;4987952;28;20023;-71
2022/04/24 05:13:40;;;;;;;2.13;1.52;;;;;;;;;;4991356;28;20050;-72
2022/04/24 05:16:06;;;;;;;2.13;1.58;;;;;;;;;;4990552;28;20026;-72
2022/04/24 05:18:33;;;;;;;1.75;1.63;;;;;;;;;;4989140;28;20038;-72
2022/04/24 05:20:59;;;;;;;2.55;1.50;;;;;;;;;;4988580;28;20027;-72
2022/04/24 05:23:25;;;;;;;3.13;1.67;;;;;;;;;;4992882;28;20502;-72
2022/04/24 05:25:52;;;;;;;2.42;2.00;;;;;;;;;;5008233;28;20041;-72
2022/04/24 05:28:18;;;;;;;2.30;1.73;;;;;;;;;;4992550;28;20049;-71
2022/04/24 05:30:44;;;;;;;3.25;2.03;;;;;;;;;;4993418;28;20027;-72
2022/04/24 05:33:16;;;;;;;2.50;1.90;;;;;;;;;;4992790;28;20099;-71
2022/04/24 05:35:42;;;;;;;3.22;2.00;;;;;;;;;;4992738;28;20026;-72
2022/04/24 05:38:09;;;;;;;2.85;2.20;;;;;;;;;;4992897;28;20028;-71
2022/04/24 05:40:38;;;;;;;2.53;2.25;;;;;;;;;;4992593;28;20023;-72
2022/04/24 05:43:04;;;;;;;2.20;2.00;;;;;;;;;;4992604;28;20491;-71
2022/04/24 05:45:32;;;;;;;3.08;2.70;;;;;;;;;;5003534;28;20112;-72
2022/04/24 05:47:59;;;;;;;8.10;5.95;;;;;;;;;;4987045;28;20044;-71
2022/04/24 05:50:26;;;;;;;9.55;6.43;;;;;;;;;;4988257;28;20032;-72
2022/04/24 05:52:56;;;;;;;6.78;4.93;;;;;;;;;;4989224;28;20027;-71
2022/04/24 05:55:22;;;;;;;5.80;4.18;;;;;;;;;;4991911;28;20411;-72
2022/04/24 05:57:49;;;;;;;5.05;2.40;;;;;;;;;;4988291;28;20032;-71
2022/04/24 06:00:16;;;;;;;7.63;2.45;;;;;;;;;;4988256;28;20018;-71
2022/04/24 06:02:43;;;;;;;2.88;2.25;;;;;;;;;;4992298;28;20057;-72
2022/04/24 06:05:15;;;;;;;2.42;1.98;;;;;;;;;;4992264;28;20029;-72
2022/04/24 06:07:46;;;;;;;3.58;1.90;;;;;;;;;;4992387;28;20019;-72
2022/04/24 06:10:12;;;;;;;1.77;1.45;;;;;;;;;;4992147;28;20022;-71
2022/04/24 06:12:49;;;;;;;1.45;1.20;;;;;;;;;;4992289;28;20038;-71
2022/04/24 06:15:20;;;;;;;2.00;1.30;;;;;;;;;;4997163;28;20030;-72
2022/04/24 06:17:52;;;;;;;2.35;1.10;;;;;;;;;;4986690;28;20019;-72
2022/04/24 06:20:19;;;;;;;1.35;1.13;;;;;;;;;;4991780;28;20019;-72
2022/04/24 06:22:45;;;;;;;1.67;1.38;;;;;;;;;;4992343;28;20026;-72
2022/04/24 06:25:15;;;;;;;1.52;1.05;;;;;;;;;;4991815;28;20031;-72
2022/04/24 06:27:42;;;;;;;1.07;1.07;;;;;;;;;;4990993;28;20027;-72
2022/04/24 06:30:08;;;;;;;1.63;1.20;;;;;;;;;;4991856;28;20271;-72
2022/04/24 06:32:41;;;;;;;2.22;1.40;;;;;;;;;;4991873;28;20038;-72
2022/04/24 06:35:09;;;;;;;3.28;1.55;;;;;;;;;;4992041;28;20475;-72
2022/04/24 06:37:41;;;;;;;1.63;1.20;;;;;;;;;;4991928;28;20006;-71
2022/04/24 06:40:09;;;;;;;1.63;1.20;;;;;;;;;;5005006;28;20045;-71
2022/04/24 06:42:36;;;;;;;1.30;1.20;;;;;;;;;;4988283;28;20037;-71
2022/04/24 06:45:03;;;;;;;2.08;1.10;;;;;;;;;;4987340;28;20529;-72
2022/04/24 06:47:29;;;;;;;1.63;1.40;;;;;;;;;;4987528;28;20419;-71
2022/04/24 06:49:55;;;;;;;4.22;2.58;;;;;;;;;;4988293;28;20027;-71
2022/04/24 06:52:25;;;;;;;4.80;3.50;;;;;;;;;;4991437;28;20042;-71
2022/04/24 06:54:58;;;;;;;6.35;3.83;;;;;;;;;;4987589;28;20027;-72
2022/04/24 06:57:27;;;;;;;5.15;3.33;;;;;;;;;;4991989;28;20022;-72
2022/04/24 06:59:56;;;;;;;5.15;2.95;;;;;;;;;;4991728;28;20080;-72
2022/04/24 07:02:22;;;;;;;4.35;2.47;;;;;;;;;;4991814;28;20025;-71
2022/04/24 07:04:49;;;;;;;4.35;2.88;;;;;;;;;;4991932;28;20029;-72
2022/04/24 07:07:15;;;;;;;6.10;2.42;;;;;;;;;;4991676;28;20026;-71
2022/04/24 07:09:41;;;;;;;3.60;2.25;;;;;;;;;;4991910;28;20030;-72
2022/04/24 07:12:08;;;;;;;3.40;2.10;;;;;;;;;;4991829;28;20023;-72
2022/04/24 07:14:34;;;;;;;3.45;1.85;;;;;;;;;;4991421;28;20039;-72
2022/04/24 07:17:01;;;;;;;3.15;1.63;;;;;;;;;;4991968;28;20740;-71
2022/04/24 07:19:27;;;;;;;1.70;1.50;;;;;;;;;;4976258;28;20018;-71
2022/04/24 07:21:53;;;;;;;2.00;1.70;;;;;;;;;;4992096;28;20030;-72
2022/04/24 07:24:20;;;;;;;1.38;1.27;;;;;;;;;;4991201;28;20019;-72
2022/04/24 07:26:46;;;;;;;2.40;2.10;;;;;;;;;;4991508;28;20027;-72
2022/04/24 07:29:12;;;;;;;10.98;6.72;;;;;;;;;;4991623;28;20022;-72
2022/04/24 07:31:39;;;;;;;6.30;3.58;;;;;;;;;;4995160;28;20052;-71
2022/04/24 07:34:05;;;;;;;6.82;2.90;;;;;;;;;;4995157;28;20038;-72
2022/04/24 07:36:31;;;;;;;13.45;6.30;;;;;;;;;;4991257;28;20022;-71
2022/04/24 07:38:58;;;;;;;9.13;5.68;;;;;;;;;;4990176;28;20491;-72
2022/04/24 07:41:25;;;;;;;10.30;5.90;;;;;;;;;;4990551;28;20019;-72
2022/04/24 07:43:52;;;;;;;4.30;3.58;;;;;;;;;;4991736;28;20026;-71
2022/04/24 07:46:18;;;;;;;4.15;2.75;;;;;;;;;;4993538;28;20026;-72
2022/04/24 07:48:44;;;;;;;4.00;1.85;;;;;;;;;;4991327;28;20034;-72
2022/04/24 07:51:11;;;;;;;4.63;3.35;;;;;;;;;;4990651;28;20080;-72
2022/04/24 07:53:41;;;;;;;7.63;4.45;;;;;;;;;;4989950;28;20039;-72
2022/04/24 07:56:07;;;;;;;3.90;3.43;;;;;;;;;;4990574;28;20019;-72
2022/04/24 07:58:34;;;;;;;3.63;2.50;;;;;;;;;;4994630;28;20034;-72
2022/04/24 08:01:00;;;;;;;6.10;2.08;;;;;;;;;;4995092;28;20029;-72
2022/04/24 08:03:26;;;;;;;2.50;2.00;;;;;;;;;;4994171;28;20480;-71
2022/04/24 08:05:53;;;;;;;2.97;1.70;;;;;;;;;;4994506;28;20031;-72
2022/04/24 08:08:21;;;;;;;3.17;1.65;;;;;;;;;;5009203;28;20019;-72
2022/04/24 08:10:49;;;;;;;2.15;1.70;;;;;;;;;;4992207;28;20018;-72
2022/04/24 08:13:16;;;;;;;1.60;1.00;;;;;;;;;;4992801;28;20088;-72
2022/04/24 08:15:43;;;;;;;1.48;1.38;;;;;;;;;;4994780;28;20030;-72
2022/04/24 08:18:10;;;;;;;2.03;1.40;;;;;;;;;;4994145;28;20083;-72
2022/04/24 08:20:37;;;;;;;1.90;1.40;;;;;;;;;;4994120;28;20021;-71
2022/04/24 08:23:03;;;;;;;2.83;1.80;;;;;;;;;;4993750;28;20027;-71
2022/04/24 08:25:37;;;;;;;1.52;1.40;;;;;;;;;;4994076;28;20026;-72
2022/04/24 08:28:08;;;;;;;2.63;1.65;;;;;;;;;;4994289;28;20033;-71
2022/04/24 08:30:36;;;;;;;2.25;1.50;;;;;;;;;;4989658;28;20403;-72
2022/04/24 08:33:02;;;;;;;1.63;1.20;;;;;;;;;;4989469;28;20064;-72
2022/04/24 08:35:28;;;;;;;2.33;1.10;;;;;;;;;;4989478;28;20026;-71
2022/04/24 08:37:55;;;;;;;3.03;1.40;;;;;;;;;;4993980;28;20020;-72
2022/04/24 08:40:24;;;;;;;1.20;1.10;;;;;;;;;;4992547;28;20536;-72
2022/04/24 08:42:54;;;;;;;1.33;1.20;;;;;;;;;;4993474;28;20027;-72
2022/04/24 08:45:24;;;;;;;1.10;1.00;;;;;;;;;;4993367;28;20046;-72
2022/04/24 08:47:51;;;;;;;1.20;1.10;;;;;;;;;;4993874;28;20026;-72
2022/04/24 08:50:19;;;;;;;2.22;1.35;;;;;;;;;;4993208;28;20022;-72
2022/04/24 08:52:45;;;;;;;1.60;1.50;;;;;;;;;;4993617;28;20022;-72
2022/04/24 08:55:12;;;;;;;1.27;1.08;;;;;;;;;;4993821;28;20398;-72
2022/04/24 08:57:38;;;;;;;2.00;1.10;;;;;;;;;;4993831;28;20030;-72
2022/04/24 09:00:07;;;;;;;1.52;1.42;;;;;;;;;;4993708;28;20018;-71
2022/04/24 09:02:33;;;;;;;1.38;1.27;;;;;;;;;;4993347;28;20215;-72
2022/04/24 09:05:00;;;;;;;1.45;1.35;;;;;;;;;;4993041;28;20387;-72
2022/04/24 09:07:31;;;;;;;1.13;1.02;;;;;;;;;;4993320;28;20044;-72
2022/04/24 09:09:58;;;;;;;1.63;1.50;;;;;;;;;;4989868;28;20029;-72
2022/04/24 09:12:25;;;;;;;1.52;1.42;;;;;;;;;;4993266;28;20048;-71
2022/04/24 09:14:52;;;;;;;1.65;1.50;;;;;;;;;;4992940;28;20036;-72
2022/04/24 09:17:20;;;;;;;2.92;2.00;;;;;;;;;;4993099;28;20403;-71
2022/04/24 09:19:47;;;;;;;2.00;1.50;;;;;;;;;;4992895;28;20022;-72
2022/04/24 09:22:13;;;;;;;3.28;2.10;;;;;;;;;;4993053;28;20034;-71
2022/04/24 09:24:52;;;;;;;2.53;2.10;;;;;;;;;;4993586;28;20488;-72
2022/04/24 09:27:36;;;;;;;2.33;2.13;;;;;;;;;;4992733;28;20377;-71
2022/04/24 09:30:03;;;;;;;2.83;2.42;;;;;;;;;;4992759;28;20022;-72
2022/04/24 09:32:30;;;;;;;3.35;2.88;;;;;;;;;;4993086;28;20034;-71
2022/04/24 09:34:57;;;;;;;4.18;3.20;;;;;;;;;;4992356;28;20068;-71
2022/04/24 09:37:24;;;;;;;3.85;3.42;;;;;;;;;;4992664;28;20028;-71
2022/04/24 09:39:51;;;;;;;6.18;3.25;;;;;;;;;;4993237;28;20026;-71
2022/04/24 09:42:18;;;;;;;3.92;2.92;;;;;;;;;;4992563;28;20033;-71
2022/04/24 09:44:46;;;;;;;5.43;3.15;;;;;;;;;;4992370;28;20042;-71
2022/04/24 09:47:12;;;;;;;3.38;2.80;;;;;;;;;;4992609;28;20030;-72
2022/04/24 09:49:39;;;;;;;3.05;2.70;;;;;;;;;;4992282;28;20029;-71
2022/04/24 09:52:08;;;;;;;3.65;3.22;;;;;;;;;;4992403;28;20022;-71
2022/04/24 09:54:35;;;;;;;4.13;3.53;;;;;;;;;;4987864;28;20088;-71
2022/04/24 09:57:02;;;;;;;5.38;3.90;;;;;;;;;;5004387;28;20029;-71
2022/04/24 09:59:28;;;;;;;3.88;3.45;;;;;;;;;;4985120;28;20050;-72
2022/04/24 10:01:55;;;;;;;6.38;4.65;;;;;;;;;;4992335;28;20025;-71
2022/04/24 10:04:22;;;;;;;5.57;4.35;;;;;;;;;;4991956;28;20072;-71
2022/04/24 10:06:50;;;;;;;5.60;4.30;;;;;;;;;;4992824;28;20026;-71
2022/04/24 10:09:17;;;;;;;9.43;6.47;;;;;;;;;;4992428;28;20030;-71
2022/04/24 10:11:44;;;;;;;10.77;8.23;;;;;;;;;;4992115;28;20032;-71
2022/04/24 10:14:13;;;;;;;10.77;8.38;;;;;;;;;;4991872;28;20553;-71
2022/04/24 10:16:53;;;;;;;11.75;8.60;;;;;;;;;;4992089;28;20030;-71
2022/04/24 10:19:22;;;;;;;11.57;9.23;;;;;;;;;;4992114;28;20040;-72
2022/04/24 10:22:07;;;;;;;11.48;9.43;;;;;;;;;;4992695;28;20022;-71
2022/04/24 10:24:43;;;;;;;12.10;8.77;;;;;;;;;;4987482;28;20023;-72
2022/04/24 10:27:12;;;;;;;11.20;8.90;;;;;;;;;;4988043;28;20029;-71
2022/04/24 10:29:59;;;;;;;12.63;9.82;;;;;;;;;;5003385;28;20034;-71
2022/04/24 10:32:33;;;;;;;11.82;9.07;;;;;;;;;;4983900;28;20037;-72
2022/04/24 10:35:00;;;;;;;14.38;10.57;;;;;;;;;;4991859;28;20549;-71
2022/04/24 10:37:27;;;;;;;12.68;10.07;;;;;;;;;;4991967;28;20391;-71
2022/04/24 10:39:58;;;;;;;11.40;10.00;;;;;;;;;;4992780;28;20032;-71
2022/04/24 10:42:31;;;;;;;12.90;10.25;;;;;;;;;;4991892;28;20500;-71
2022/04/24 10:45:04;;;;;;;14.95;10.23;;;;;;;;;;4999309;28;20057;-71
2022/04/24 10:47:42;;;;;;;11.45;8.02;;;;;;;;;;4984310;28;20029;-71
2022/04/24 10:50:09;;;;;;;14.20;8.70;;;;;;;;;;4991776;28;20515;-71
2022/04/24 10:52:43;;;;;;;13.20;7.60;;;;;;;;;;4991935;28;20022;-72
2022/04/24 10:55:12;;;;;;;15.40;8.32;;;;;;;;;;4991935;28;20042;-72
2022/04/24 10:57:42;;;;;;;13.93;8.90;;;;;;;;;;4994331;28;20041;-71
2022/04/24 11:00:25;;;;;;;13.43;9.80;;;;;;;;;;4989628;28;20084;-72
2022/04/24 11:02:52;;;;;;;14.40;9.93;;;;;;;;;;4991639;28;20038;-71
2022/04/24 11:05:23;;;;;;;10.63;7.60;;;;;;;;;;4993691;28;20034;-72
2022/04/24 11:08:00;;;;;;;11.30;8.30;;;;;;;;;;4995731;28;20064;-71
2022/04/24 11:10:27;;;;;;;10.23;6.53;;;;;;;;;;4995777;28;20042;-71
2022/04/24 11:12:54;;;;;;;11.48;7.32;;;;;;;;;;4995939;28;20509;-71
2022/04/24 11:15:21;;;;;;;10.60;7.05;;;;;;;;;;4994977;28;20034;-72
2022/04/24 11:17:47;;;;;;;9.98;7.90;;;;;;;;;;4995336;28;20027;-71
2022/04/24 11:20:15;;;;;;;17.05;9.55;;;;;;;;;;4995238;28;20049;-71
2022/04/24 11:22:48;;;;;;;14.57;10.00;;;;;;;;;;4995481;28;20029;-71
2022/04/24 11:25:16;;;;;;;14.88;10.15;;;;;;;;;;5009065;28;20031;-72
2022/04/24 11:27:45;;;;;;;17.15;9.77;;;;;;;;;;4995623;28;20398;-71
2022/04/24 11:30:16;;;;;;;15.85;9.60;;;;;;;;;;4994756;28;20033;-71
2022/04/24 11:32:42;;;;;;;17.07;10.70;;;;;;;;;;4994901;28;20034;-71
2022/04/24 11:35:08;;;;;;;12.30;9.52;;;;;;;;;;4995029;28;20286;-72
2022/04/24 11:37:35;;;;;;;17.58;11.45;;;;;;;;;;4995066;28;20030;-71
2022/04/24 11:40:01;;;;;;;16.08;10.13;;;;;;;;;;4995241;28;20521;-72
2022/04/24 11:42:28;;;;;;;14.60;9.63;;;;;;;;;;4994723;28;20031;-71
2022/04/24 11:50:24;;;;;;;18.75;9.60;;;;;;;;;;4994723;28;20026;-71
2022/04/24 11:52:51;;;;;;;14.07;9.63;;;;;;;;;;4994975;28;21471;-71
2022/04/24 11:55:18;;;;;;;13.40;9.55;;;;;;;;;;4994855;28;20030;-72
2022/04/24 11:57:44;;;;;;;11.65;8.50;;;;;;;;;;4995165;28;20037;-71
2022/04/24 12:00:18;;;;;;;14.73;8.40;;;;;;;;;;4994264;28;20020;-72
2022/04/24 12:02:45;;;;;;;13.45;8.68;;;;;;;;;;4994902;28;20033;-71
2022/04/24 12:05:11;;;;;;;9.05;6.55;;;;;;;;;;4994491;28;20514;-71
2022/04/24 12:07:38;;;;;;;11.18;8.18;;;;;;;;;;4994432;28;20399;-72
2022/04/24 12:10:09;;;;;;;8.57;6.47;;;;;;;;;;4994914;28;20161;-72
2022/04/24 12:12:48;;;;;;;12.85;7.70;;;;;;;;;;4989919;28;20018;-72
2022/04/24 12:15:15;;;;;;;13.88;8.45;;;;;;;;;;4989822;28;20038;-72
2022/04/24 12:17:50;;;;;;;9.73;6.93;;;;;;;;;;4990241;28;20030;-71
2022/04/24 12:20:17;;;;;;;8.43;6.13;;;;;;;;;;4990161;28;20026;-71
2022/04/24 12:22:44;;;;;;;8.80;6.38;;;;;;;;;;4990283;28;20030;-71
2022/04/24 12:25:11;;;;;;;6.35;5.45;;;;;;;;;;4994655;28;20040;-72
2022/04/24 12:27:38;;;;;;;8.30;5.45;;;;;;;;;;4994061;28;20487;-71
2022/04/24 12:30:09;;;;;;;8.65;5.93;;;;;;;;;;5001186;28;20033;-71
2022/04/24 12:32:36;;;;;;;;;;;;;;;;;;4983550;28;20026;-71
2022/04/24 12:35:02;;;;;;;7.28;4.78;;;;;;;;;;4989699;28;19922;-71
2022/04/24 12:37:35;;;;;;;6.20;4.97;;;;;;;;;;4978372;28;20044;-71
2022/04/24 12:40:01;;;;;;;6.28;5.05;;;;;;;;;;4990500;28;20387;-72
2022/04/24 12:42:28;;;;;;;10.07;5.25;;;;;;;;;;4989772;28;20026;-72
2022/04/24 12:44:54;;;;;;;5.03;3.95;;;;;;;;;;4989187;28;20048;-71
2022/04/24 12:47:21;;;;;;;5.15;3.72;;;;;;;;;;4989373;28;20037;-71
2022/04/24 12:49:48;;;;;;;6.90;3.78;;;;;;;;;;4991911;28;20026;-72
2022/04/24 12:52:15;;;;;;;7.47;5.45;;;;;;;;;;4991951;28;20022;-72
2022/04/24 12:54:41;;;;;;;9.25;4.90;;;;;;;;;;4994013;28;20045;-71
2022/04/24 12:57:08;;;;;;;8.93;5.82;;;;;;;;;;4993216;28;20038;-71
2022/04/24 12:59:35;;;;;;;7.20;6.03;;;;;;;;;;4993393;28;20499;-71
2022/04/24 13:02:03;;;;;;;6.55;5.28;;;;;;;;;;4993719;28;20018;-71
2022/04/24 13:04:30;;;;;;;9.93;6.07;;;;;;;;;;4978047;28;20030;-72
2022/04/24 13:06:56;;;;;;;7.95;5.40;;;;;;;;;;4993789;28;20458;-71
2022/04/24 13:09:22;;;;;;;6.65;4.55;;;;;;;;;;4993334;28;20034;-71
2022/04/24 13:11:49;;;;;;;6.65;4.70;;;;;;;;;;4993225;28;20041;-71
2022/04/24 13:14:15;;;;;;;5.18;4.32;;;;;;;;;;4993156;28;20040;-71
2022/04/24 13:19:27;;;;;;;7.10;5.40;;;;;;;;;;4993202;28;20060;-71
2022/04/24 13:21:53;;;;;;;5.93;4.60;;;;;;;;;;4993854;28;20032;-71
2022/04/24 13:24:20;;;;;;;8.02;4.80;;;;;;;;;;4998160;28;20041;-72
2022/04/24 13:26:47;;;;;;;6.95;5.10;;;;;;;;;;4987365;28;20026;-72
2022/04/24 13:29:13;;;;;;;9.45;3.97;;;;;;;;;;4992816;28;20068;-71
2022/04/24 13:31:40;;;;;;;2.88;2.55;;;;;;;;;;4993224;28;20029;-72
2022/04/24 13:34:06;;;;;;;7.15;3.50;;;;;;;;;;4992906;28;20068;-71
2022/04/24 13:36:32;;;;;;;3.67;2.40;;;;;;;;;;4988009;28;20029;-71
2022/04/24 13:38:59;;;;;;;3.53;3.05;;;;;;;;;;4988697;28;20040;-71
2022/04/24 13:41:26;;;;;;;2.90;2.60;;;;;;;;;;4987966;28;20502;-71
2022/04/24 13:43:52;;;;;;;6.68;4.38;;;;;;;;;;4989796;28;20407;-71
2022/04/24 13:46:19;;;;;;;4.57;2.28;;;;;;;;;;4991441;28;20044;-71
2022/04/24 13:48:46;;;;;;;3.67;2.08;;;;;;;;;;5002629;28;20037;-71
2022/04/24 13:51:15;;;;;;;5.32;2.33;;;;;;;;;;4994606;28;20034;-72
2022/04/24 13:53:41;;;;;;;4.15;2.17;;;;;;;;;;4992392;28;20038;-72
2022/04/24 13:56:08;;;;;;;2.25;2.05;;;;;;;;;;4992352;28;20014;-72
2022/04/24 13:58:34;;;;;;;3.67;2.60;;;;;;;;;;4992793;28;20034;-71
2022/04/24 14:01:00;;;;;;;1.75;1.65;;;;;;;;;;4993101;28;20033;-71
2022/04/24 14:03:27;;;;;;;4.22;2.40;;;;;;;;;;4988314;28;20034;-72
2022/04/24 14:05:54;;;;;;;2.28;2.05;;;;;;;;;;4987958;28;20479;-71
2022/04/24 14:08:24;;;;;;;3.10;2.80;;;;;;;;;;4988018;28;20030;-71
2022/04/24 14:10:51;;;;;;;2.90;2.60;;;;;;;;;;4989255;28;20022;-71
2022/04/24 14:13:18;;;;;;;3.53;2.35;;;;;;;;;;4990759;28;20107;-72
2022/04/24 14:15:44;;;;;;;4.38;2.70;;;;;;;;;;4992768;28;20026;-72
2022/04/24 14:18:10;;;;;;;3.40;2.38;;;;;;;;;;4992038;28;20634;-71
2022/04/24 14:20:37;;;;;;;4.10;2.20;;;;;;;;;;5002951;28;20089;-72
2022/04/24 14:23:04;;;;;;;7.78;3.30;;;;;;;;;;4981129;28;20018;-71
2022/04/24 14:25:30;;;;;;;3.40;2.80;;;;;;;;;;4976761;28;20019;-72
2022/04/24 14:27:57;;;;;;;3.47;2.63;;;;;;;;;;4988436;28;20495;-71
2022/04/24 14:30:23;;;;;;;4.20;2.60;;;;;;;;;;4991946;28;20439;-71
2022/04/24 14:32:49;;;;;;;3.75;3.35;;;;;;;;;;4991988;28;20036;-72
2022/04/24 14:35:19;;;;;;;3.13;2.42;;;;;;;;;;4991971;28;20037;-72
2022/04/24 14:37:46;;;;;;;3.53;2.45;;;;;;;;;;4992132;28;20026;-72
2022/04/24 14:40:12;;;;;;;2.30;2.10;;;;;;;;;;4993711;28;20049;-71
2022/04/24 14:42:38;;;;;;;3.67;2.80;;;;;;;;;;4996457;28;20487;-72
2022/04/24 14:45:06;;;;;;;3.83;3.03;;;;;;;;;;4995801;28;20038;-71
2022/04/24 14:55:44;;;;;;;4.35;3.95;;;;;;;;;;4995663;28;20388;-71
2022/04/24 14:55:49;;;;;;;8.88;3.88;;;;;;;;;;4980531;28;20030;-72